createdAt,value
2022-12-03T00:00:12.548Z,12.77
2022-12-03T00:02:40.318Z,13.15
2022-12-03T00:05:08.059Z,11.23
2022-12-03T00:07:35.407Z,13.18
2022-12-03T00:10:02.220Z,11.88
2022-12-03T00:12:30.484Z,12.50
2022-12-03T00:14:57.552Z,11.63
2022-12-03T00:17:24.614Z,12.40
2022-12-03T00:19:51.444Z,11.95
2022-12-03T00:22:18.578Z,12.55
2022-12-03T00:24:45.805Z,11.82
2022-12-03T00:27:12.678Z,11.80
2022-12-03T00:29:39.675Z,11.65
2022-12-03T00:32:06.563Z,12.43
2022-12-03T00:34:33.434Z,10.75
2022-12-03T00:37:00.233Z,11.30
2022-12-03T00:39:27.102Z,12.85
2022-12-03T00:41:54.001Z,11.57
2022-12-03T00:44:20.849Z,11.57
2022-12-03T00:46:47.737Z,11.57
2022-12-03T00:49:14.603Z,10.20
2022-12-03T00:51:41.502Z,10.40
2022-12-03T00:54:08.348Z,10.27
2022-12-03T00:56:35.229Z,11.88
2022-12-03T00:59:02.097Z,10.65
2022-12-03T01:01:29.064Z,11.23
2022-12-03T01:03:56.022Z,11.55
2022-12-03T01:06:23.060Z,11.07
2022-12-03T01:08:49.961Z,11.32
2022-12-03T01:11:35.235Z,11.25
2022-12-03T01:14:02.519Z,11.10
2022-12-03T01:16:29.463Z,11.93
2022-12-03T01:18:56.635Z,10.90
2022-12-03T01:21:23.716Z,11.70
2022-12-03T01:23:50.629Z,11.40
2022-12-03T01:26:17.472Z,10.60
2022-12-03T01:28:44.487Z,10.77
2022-12-03T01:31:29.873Z,10.73
2022-12-03T01:33:56.956Z,10.52
2022-12-03T01:36:23.943Z,11.32
2022-12-03T01:38:50.796Z,11.15
2022-12-03T01:41:19.535Z,10.95
2022-12-03T01:43:47.087Z,11.63
2022-12-03T01:46:21.229Z,11.27
2022-12-03T01:48:50.692Z,11.77
2022-12-03T01:51:17.823Z,12.32
2022-12-03T01:53:44.788Z,11.07
2022-12-03T01:56:15.899Z,11.68
2022-12-03T01:58:44.212Z,11.20
2022-12-03T02:01:15.563Z,11.07
2022-12-03T02:03:43.180Z,12.03
2022-12-03T02:06:21.641Z,10.40
2022-12-03T02:08:49.201Z,11.65
2022-12-03T02:11:21.369Z,12.07
2022-12-03T02:13:51.389Z,12.30
2022-12-03T02:16:18.621Z,12.52
2022-12-03T02:18:45.856Z,12.50
2022-12-03T02:21:35.972Z,11.20
2022-12-03T02:24:14.959Z,12.25
2022-12-03T02:26:41.834Z,11.10
2022-12-03T02:29:09.977Z,11.68
2022-12-03T02:31:37.070Z,10.68
2022-12-03T02:34:07.615Z,11.32
2022-12-03T02:36:36.197Z,11.43
2022-12-03T02:39:03.866Z,10.80
2022-12-03T02:41:49.274Z,10.73
2022-12-03T02:44:16.156Z,10.35
2022-12-03T02:46:43.257Z,9.30
2022-12-03T02:49:10.268Z,9.27
2022-12-03T02:51:37.590Z,9.75
2022-12-03T02:54:04.645Z,10.10
2022-12-03T02:56:32.692Z,9.75
2022-12-03T02:59:03.347Z,10.27
2022-12-03T03:01:30.906Z,10.55
2022-12-03T03:03:58.577Z,9.57
2022-12-03T03:06:25.917Z,9.90
2022-12-03T03:08:52.990Z,8.40
2022-12-03T03:11:19.881Z,8.88
2022-12-03T03:13:46.830Z,9.30
2022-12-03T03:16:13.744Z,9.20
2022-12-03T03:18:40.867Z,9.48
2022-12-03T03:21:08.236Z,8.98
2022-12-03T03:23:35.111Z,9.02
2022-12-03T03:26:05.938Z,8.85
2022-12-03T03:28:35.775Z,8.68
2022-12-03T03:31:05.073Z,9.20
2022-12-03T03:33:32.775Z,9.20
2022-12-03T03:36:00.626Z,7.88
2022-12-03T03:38:28.492Z,8.32
2022-12-03T03:40:56.439Z,9.07
2022-12-03T03:43:24.856Z,8.52
2022-12-03T03:45:53.406Z,7.68
2022-12-03T03:48:21.542Z,8.20
2022-12-03T03:50:49.616Z,8.50
2022-12-03T03:53:17.654Z,8.57
2022-12-03T03:55:44.747Z,8.27
2022-12-03T03:58:11.641Z,8.05
2022-12-03T04:00:38.665Z,7.95
2022-12-03T04:03:05.972Z,8.32
2022-12-03T04:05:33.112Z,8.50
2022-12-03T04:08:00.178Z,8.40
2022-12-03T04:10:45.685Z,7.60
2022-12-03T04:13:12.583Z,8.38
2022-12-03T04:15:39.539Z,7.60
2022-12-03T04:18:24.815Z,7.60
2022-12-03T04:20:51.988Z,8.02
2022-12-03T04:23:18.845Z,7.93
2022-12-03T04:26:04.593Z,7.80
2022-12-03T04:28:49.311Z,8.20
2022-12-03T04:31:34.946Z,7.90
2022-12-03T04:34:20.442Z,7.68
2022-12-03T04:36:47.650Z,8.38
2022-12-03T04:39:14.486Z,8.20
2022-12-03T04:41:41.458Z,7.85
2022-12-03T04:44:26.751Z,8.45
2022-12-03T04:46:53.551Z,7.43
2022-12-03T04:49:20.443Z,7.63
2022-12-03T04:51:47.329Z,8.07
2022-12-03T04:54:14.442Z,8.30
2022-12-03T04:56:41.338Z,9.70
2022-12-03T04:59:14.205Z,10.90
2022-12-03T05:01:42.794Z,10.88
2022-12-03T05:04:09.838Z,10.25
2022-12-03T05:06:48.730Z,10.18
2022-12-03T05:09:16.303Z,9.80
2022-12-03T05:11:43.689Z,8.30
2022-12-03T05:14:11.125Z,9.00
2022-12-03T05:16:38.533Z,8.45
2022-12-03T05:19:07.080Z,9.07
2022-12-03T05:21:34.181Z,8.13
2022-12-03T05:24:01.773Z,8.82
2022-12-03T05:26:28.589Z,7.85
2022-12-03T05:28:55.466Z,9.10
2022-12-03T05:31:22.430Z,8.45
2022-12-03T05:33:49.414Z,8.85
2022-12-03T05:36:16.471Z,8.77
2022-12-03T05:38:43.407Z,8.93
2022-12-03T05:41:28.787Z,9.90
2022-12-03T05:43:56.075Z,9.05
2022-12-03T05:46:23.075Z,9.35
2022-12-03T05:48:50.154Z,9.57
2022-12-03T05:51:18.302Z,8.82
2022-12-03T05:53:45.411Z,8.60
2022-12-03T05:56:12.411Z,9.20
2022-12-03T05:58:39.243Z,10.35
2022-12-03T06:01:06.286Z,12.48
2022-12-03T06:03:33.438Z,12.70
2022-12-03T06:06:00.531Z,12.90
2022-12-03T06:08:27.431Z,12.18
2022-12-03T06:10:54.375Z,10.55
2022-12-03T06:13:21.281Z,10.18
2022-12-03T06:15:48.177Z,10.95
2022-12-03T06:18:15.191Z,10.25
2022-12-03T06:20:42.088Z,10.15
2022-12-03T06:23:09.072Z,11.50
2022-12-03T06:25:37.023Z,10.77
2022-12-03T06:28:04.172Z,10.32
2022-12-03T06:30:31.126Z,12.27
2022-12-03T06:32:57.881Z,19.70
2022-12-03T06:35:24.686Z,10.05
2022-12-03T06:37:51.572Z,10.82
2022-12-03T06:40:18.527Z,10.70
2022-12-03T06:42:45.520Z,9.70
2022-12-03T06:45:12.608Z,10.25
2022-12-03T06:47:39.550Z,10.32
2022-12-03T06:50:09.032Z,10.05
2022-12-03T06:52:36.231Z,10.75
2022-12-03T06:55:04.666Z,11.00
2022-12-03T06:57:31.699Z,9.50
2022-12-03T06:59:58.680Z,9.55
2022-12-03T07:02:25.583Z,10.27
2022-12-03T07:04:54.572Z,10.65
2022-12-03T07:07:21.968Z,10.73
2022-12-03T07:09:49.067Z,11.02
2022-12-03T07:12:16.098Z,12.40
2022-12-03T07:14:42.958Z,12.52
2022-12-03T07:17:11.058Z,11.65
2022-12-03T07:19:38.973Z,15.32
2022-12-03T07:22:06.630Z,13.93
2022-12-03T07:24:33.690Z,12.85
2022-12-03T07:27:00.933Z,13.73
2022-12-03T07:29:27.806Z,12.13
2022-12-03T07:31:55.069Z,12.32
2022-12-03T07:34:22.212Z,12.90
2022-12-03T07:36:50.722Z,13.60
2022-12-03T07:39:17.582Z,15.38
2022-12-03T07:41:46.408Z,14.95
2022-12-03T07:44:14.845Z,13.60
2022-12-03T07:46:42.658Z,13.18
2022-12-03T07:49:09.645Z,11.95
2022-12-03T07:51:36.494Z,12.35
2022-12-03T07:54:03.699Z,13.88
2022-12-03T07:56:30.741Z,13.90
2022-12-03T07:59:00.274Z,14.10
2022-12-03T08:01:28.895Z,13.93
2022-12-03T08:03:56.123Z,13.63
2022-12-03T08:06:24.070Z,14.15
2022-12-03T08:08:51.128Z,13.23
2022-12-03T08:11:20.948Z,14.30
2022-12-03T08:13:49.586Z,14.88
2022-12-03T08:16:22.648Z,15.88
2022-12-03T08:18:54.448Z,16.10
2022-12-03T08:21:23.512Z,17.05
2022-12-03T08:23:50.412Z,18.40
2022-12-03T08:26:25.335Z,15.30
2022-12-03T08:28:54.523Z,13.90
2022-12-03T08:31:33.701Z,14.38
2022-12-03T08:34:28.718Z,14.40
2022-12-03T08:37:05.918Z,14.45
2022-12-03T08:39:40.884Z,16.63
2022-12-03T08:42:38.428Z,15.52
2022-12-03T08:45:32.106Z,16.42
2022-12-03T08:48:02.785Z,15.80
2022-12-03T08:50:38.825Z,18.30
2022-12-03T08:53:32.679Z,17.65
2022-12-03T08:56:02.982Z,14.98
2022-12-03T08:58:46.774Z,15.25
2022-12-03T09:01:13.639Z,15.30
2022-12-03T09:03:52.571Z,13.20
2022-12-03T09:06:19.538Z,14.05
2022-12-03T09:08:46.597Z,14.30
2022-12-03T09:11:14.627Z,26.40
2022-12-03T09:13:41.584Z,13.57
2022-12-03T09:16:08.868Z,18.13
2022-12-03T09:18:36.177Z,12.77
2022-12-03T09:21:03.342Z,9.52
2022-12-03T09:23:30.319Z,3.47
2022-12-03T09:25:57.167Z,5.80
2022-12-03T09:28:24.053Z,6.20
2022-12-03T09:30:51.010Z,7.60
2022-12-03T09:33:17.859Z,5.45
2022-12-03T09:35:44.636Z,4.78
2022-12-03T09:38:11.815Z,1.35
2022-12-03T09:40:39.332Z,1.38
2022-12-03T09:43:06.624Z,2.10
2022-12-03T09:45:33.552Z,6.28
2022-12-03T09:48:04.185Z,6.70
2022-12-03T09:50:32.366Z,7.07
2022-12-03T09:53:04.170Z,5.15
2022-12-03T09:55:31.509Z,1.63
2022-12-03T09:57:59.284Z,1.77
2022-12-03T10:00:29.404Z,1.45
2022-12-03T10:03:04.910Z,1.08
2022-12-03T10:05:32.327Z,0.98
2022-12-03T10:08:08.978Z,2.40
2022-12-03T10:10:47.335Z,1.00
2022-12-03T10:13:42.282Z,0.47
2022-12-03T10:16:16.005Z,0.63
2022-12-03T10:21:43.258Z,0.60
2022-12-03T10:27:43.096Z,0.65
2022-12-03T10:31:08.337Z,0.68
2022-12-03T10:33:53.870Z,0.73
2022-12-03T10:36:24.334Z,1.02
2022-12-03T10:39:12.989Z,1.77
2022-12-03T10:41:41.504Z,0.93
2022-12-03T10:44:14.395Z,0.95
2022-12-03T10:46:50.328Z,1.42
2022-12-03T10:49:19.155Z,0.93
2022-12-03T10:51:49.379Z,0.65
2022-12-03T10:54:19.518Z,1.30
2022-12-03T10:56:51.172Z,0.80
2022-12-03T10:59:34.654Z,1.00
2022-12-03T11:02:06.317Z,1.38
2022-12-03T11:04:35.720Z,1.50
2022-12-03T11:07:06.398Z,1.48
2022-12-03T11:09:35.334Z,1.33
2022-12-03T11:12:17.973Z,1.05
2022-12-03T11:14:56.258Z,1.38
2022-12-03T11:17:42.789Z,1.42
2022-12-03T11:26:33.042Z,1.60
2022-12-03T11:29:01.201Z,2.97
2022-12-03T11:31:47.213Z,3.67
2022-12-03T11:34:20.348Z,5.32
2022-12-03T11:37:09.258Z,5.07
2022-12-03T11:40:03.203Z,5.78
2022-12-03T11:42:40.609Z,5.95
2022-12-03T11:45:36.733Z,5.65
2022-12-03T11:48:15.380Z,6.43
2022-12-03T11:50:50.401Z,6.60
2022-12-03T11:53:22.861Z,6.93
2022-12-03T11:56:18.966Z,6.07
2022-12-03T11:58:47.888Z,5.45
2022-12-03T12:01:19.100Z,5.85
2022-12-03T12:03:57.015Z,6.80
2022-12-03T12:06:26.177Z,5.90
2022-12-03T12:08:58.272Z,5.72
2022-12-03T12:11:35.249Z,5.20
2022-12-03T12:14:07.376Z,5.78
2022-12-03T12:16:41.073Z,5.18
2022-12-03T12:19:32.661Z,5.25
2022-12-03T12:25:33.948Z,5.70
2022-12-03T12:28:01.289Z,3.92
2022-12-03T12:30:31.185Z,6.85
2022-12-03T12:36:21.154Z,4.70
2022-12-03T12:41:29.002Z,5.38
2022-12-03T12:43:56.068Z,4.70
2022-12-03T12:46:48.427Z,4.72
2022-12-03T12:52:07.220Z,4.57
2022-12-03T12:54:35.952Z,5.47
2022-12-03T12:57:17.059Z,7.32
2022-12-03T12:59:44.245Z,7.65
2022-12-03T13:03:01.248Z,9.15
2022-12-03T13:20:10.614Z,6.20
2022-12-03T13:22:39.593Z,5.55
2022-12-03T13:26:00.266Z,7.65
2022-12-03T13:31:50.164Z,5.28
2022-12-03T13:43:14.249Z,7.88
2022-12-03T13:45:47.728Z,6.05
2022-12-03T13:54:10.403Z,6.68
2022-12-03T13:59:26.325Z,5.13
2022-12-03T14:01:53.645Z,5.15
2022-12-03T14:04:23.672Z,5.25
2022-12-03T14:06:51.834Z,6.05
2022-12-03T14:09:36.643Z,5.82
2022-12-03T14:12:24.346Z,6.85
2022-12-03T14:14:53.815Z,6.38
2022-12-03T14:17:20.843Z,8.75
2022-12-03T14:19:51.510Z,7.43
2022-12-03T14:22:23.377Z,5.90
2022-12-03T14:27:32.249Z,14.77
2022-12-03T14:30:04.339Z,22.65
2022-12-03T14:32:39.877Z,13.43
2022-12-03T14:35:10.417Z,13.63
2022-12-03T14:37:38.868Z,15.85
2022-12-03T14:40:09.046Z,14.75
2022-12-03T14:42:36.878Z,13.75
2022-12-03T14:45:08.601Z,13.55
2022-12-03T14:47:38.239Z,13.50
2022-12-03T14:50:05.907Z,16.38
2022-12-03T14:52:34.352Z,16.60
2022-12-03T14:55:02.320Z,17.25
2022-12-03T14:57:37.593Z,15.75
2022-12-03T15:00:08.774Z,15.75
2022-12-03T15:05:27.891Z,16.70
2022-12-03T15:07:59.659Z,15.60
2022-12-03T15:10:26.603Z,19.70
2022-12-03T15:12:55.100Z,18.38
2022-12-03T15:15:22.035Z,18.27
2022-12-03T15:17:48.875Z,18.77
2022-12-03T15:20:16.948Z,21.67
2022-12-03T15:25:27.713Z,12.65
2022-12-03T15:27:54.584Z,17.88
2022-12-03T16:41:26.661Z,20.20
2022-12-03T16:46:54.522Z,21.20
2022-12-03T16:49:35.220Z,19.75
2022-12-03T16:52:02.246Z,20.42
2022-12-03T16:54:29.102Z,28.55
2022-12-03T16:56:55.959Z,27.40
2022-12-03T16:59:23.334Z,24.05
2022-12-03T17:01:50.293Z,23.90
2022-12-03T17:04:17.758Z,23.55
2022-12-03T17:06:44.708Z,22.25
2022-12-03T17:09:11.790Z,21.95
2022-12-03T17:11:38.655Z,20.58
2022-12-03T17:14:05.862Z,19.67
2022-12-03T17:19:16.533Z,20.05
2022-12-03T17:21:43.540Z,21.30
2022-12-03T17:24:10.562Z,26.63
2022-12-03T17:26:46.953Z,29.60
2022-12-03T17:32:02.371Z,30.70
2022-12-03T17:34:29.365Z,31.70
2022-12-03T17:36:57.386Z,30.52
2022-12-03T17:39:24.329Z,31.20
2022-12-03T17:41:51.290Z,23.52
2022-12-03T17:44:21.542Z,20.88
2022-12-03T17:46:50.008Z,21.48
2022-12-03T17:49:16.891Z,20.13
2022-12-03T17:51:43.902Z,18.85
2022-12-03T17:54:11.152Z,21.60
2022-12-03T17:56:39.393Z,28.80
2022-12-03T17:59:06.263Z,27.73
2022-12-03T18:01:34.557Z,25.15
2022-12-03T18:04:01.450Z,23.23
2022-12-03T18:09:10.792Z,25.13
2022-12-03T18:14:16.846Z,27.63
2022-12-03T18:16:45.112Z,30.42
2022-12-03T18:19:14.097Z,26.20
2022-12-03T18:21:41.053Z,29.40
2022-12-03T18:24:08.472Z,25.30
2022-12-03T18:26:36.995Z,22.90
2022-12-03T18:29:03.887Z,18.02
2022-12-03T18:31:32.291Z,20.13
2022-12-03T18:33:59.500Z,18.17
2022-12-03T18:36:30.645Z,17.55
2022-12-03T18:39:00.586Z,17.60
2022-12-03T18:41:27.769Z,17.75
2022-12-03T18:43:54.728Z,20.52
2022-12-03T18:46:53.134Z,22.63
2022-12-03T18:49:09.849Z,25.08
2022-12-03T18:51:37.378Z,22.73
2022-12-03T18:54:04.806Z,23.92
2022-12-03T18:56:31.677Z,23.73
2022-12-03T18:58:59.382Z,26.13
2022-12-03T19:01:40.932Z,26.23
2022-12-03T19:04:10.017Z,25.70
2022-12-03T19:06:36.839Z,24.30
2022-12-03T19:09:07.925Z,24.52
2022-12-03T19:11:37.985Z,24.90
2022-12-03T19:14:13.925Z,27.38
2022-12-03T19:19:28.337Z,30.65
2022-12-03T19:21:57.109Z,30.23
2022-12-03T19:24:25.809Z,30.30
2022-12-03T19:27:13.500Z,29.70
2022-12-03T19:32:25.185Z,31.80
2022-12-03T19:34:52.191Z,32.08
2022-12-03T19:37:19.028Z,29.42
2022-12-03T19:39:46.909Z,30.35
2022-12-03T19:42:16.764Z,32.63
2022-12-03T19:44:44.847Z,29.17
2022-12-03T19:47:14.224Z,31.10
2022-12-03T19:49:43.485Z,24.05
2022-12-03T19:52:11.198Z,18.77
2022-12-03T19:54:38.195Z,22.90
2022-12-03T19:57:05.085Z,31.67
2022-12-03T19:59:34.161Z,33.22
2022-12-03T20:02:05.088Z,33.40
2022-12-03T20:04:32.948Z,32.92
2022-12-03T20:06:59.983Z,31.05
2022-12-03T20:09:34.787Z,29.83
2022-12-03T20:12:01.989Z,31.48
2022-12-03T20:14:35.519Z,29.02
2022-12-03T20:17:04.757Z,25.02
2022-12-03T20:19:31.949Z,25.02
2022-12-03T20:22:03.105Z,25.23
2022-12-03T20:24:30.314Z,29.53
2022-12-03T20:26:58.671Z,33.70
2022-12-03T20:29:29.239Z,34.95
2022-12-03T20:31:57.164Z,31.95
2022-12-03T20:39:33.490Z,31.90
2022-12-03T20:42:00.691Z,33.13
2022-12-03T20:44:30.341Z,35.75
2022-12-03T20:46:57.283Z,29.67
2022-12-03T20:49:27.089Z,30.80
2022-12-03T20:51:54.199Z,31.15
2022-12-03T20:54:24.016Z,19.30
2022-12-03T20:56:50.893Z,21.15
2022-12-03T20:59:19.240Z,23.40
2022-12-03T21:01:46.502Z,21.13
2022-12-03T21:04:18.697Z,24.48
2022-12-03T21:06:45.977Z,24.98
2022-12-03T21:09:13.563Z,24.13
2022-12-03T21:11:46.784Z,20.40
2022-12-03T21:17:11.968Z,24.15
2022-12-03T21:19:40.274Z,26.67
2022-12-03T21:22:12.219Z,22.88
2022-12-03T21:27:26.959Z,25.08
2022-12-03T21:32:49.530Z,23.92
2022-12-03T21:35:18.798Z,23.83
2022-12-03T21:37:46.858Z,25.50
2022-12-03T21:40:17.859Z,24.48
2022-12-03T21:42:47.855Z,21.85
2022-12-03T21:45:15.676Z,18.33
2022-12-03T21:47:46.019Z,18.88
2022-12-03T21:50:14.220Z,19.40
2022-12-03T21:55:32.939Z,17.70
2022-12-03T21:57:59.922Z,16.15
2022-12-03T22:03:36.739Z,14.90
2022-12-03T22:06:05.155Z,14.38
2022-12-03T22:08:36.422Z,15.15
2022-12-03T22:11:25.576Z,14.45
2022-12-03T22:16:49.354Z,19.77
2022-12-03T22:19:16.193Z,18.45
2022-12-03T22:21:46.568Z,17.52
2022-12-03T22:24:18.091Z,16.77
2022-12-03T22:26:46.019Z,16.58
2022-12-03T22:29:14.696Z,17.00
2022-12-03T22:31:43.134Z,15.80
2022-12-03T22:34:10.029Z,15.07
2022-12-03T22:59:04.430Z,16.55
2022-12-03T23:01:38.548Z,15.70
2022-12-03T23:09:14.771Z,13.88
2022-12-03T23:11:45.006Z,15.23
2022-12-03T23:14:13.278Z,14.50
2022-12-03T23:16:41.119Z,13.63
2022-12-03T23:19:08.180Z,13.23
2022-12-03T23:21:36.353Z,10.65
2022-12-03T23:24:04.676Z,11.05
2022-12-03T23:26:36.047Z,11.30
2022-12-03T23:29:05.716Z,14.45
2022-12-03T23:31:33.749Z,14.32
2022-12-03T23:34:01.860Z,14.93
2022-12-03T23:36:31.536Z,15.50
2022-12-03T23:38:58.495Z,14.98
2022-12-03T23:41:26.066Z,14.27
2022-12-03T23:43:53.474Z,13.32
2022-12-03T23:46:25.142Z,12.38
2022-12-03T23:48:57.089Z,15.40
2022-12-03T23:51:25.213Z,14.98
2022-12-03T23:53:54.803Z,14.23
2022-12-03T23:56:30.764Z,14.90
2022-12-03T23:58:58.826Z,22.10
